sensor_id;sensor_type;location;lat;lon;timestamp;pressure;altitude;pressure_sealevel;temperature;humidity
74346;BME280;62776;50.518;6.732;2023-07-13T00:01:44;96577.78;;;16.45;73.48
74346;BME280;62776;50.518;6.732;2023-07-13T00:04:31;96574.41;;;16.42;73.69
74346;BME280;62776;50.518;6.732;2023-07-13T00:07:18;96571.09;;;16.37;75.42
74346;BME280;62776;50.518;6.732;2023-07-13T00:10:08;96583.44;;;16.33;75.68
74346;BME280;62776;50.518;6.732;2023-07-13T00:12:54;96586.25;;;16.27;74.39
74346;BME280;62776;50.518;6.732;2023-07-13T00:15:41;96588.09;;;16.24;75.53
74346;BME280;62776;50.518;6.732;2023-07-13T00:18:28;96588.25;;;16.19;76.42
74346;BME280;62776;50.518;6.732;2023-07-13T00:21:15;96586.69;;;16.14;77.16
74346;BME280;62776;50.518;6.732;2023-07-13T00:24:03;96580.66;;;16.12;77.87
74346;BME280;62776;50.518;6.732;2023-07-13T00:26:49;96578.25;;;16.04;78.28
74346;BME280;62776;50.518;6.732;2023-07-13T00:29:37;96573.16;;;16.00;78.61
74346;BME280;62776;50.518;6.732;2023-07-13T00:32:23;96580.22;;;15.98;78.70
74346;BME280;62776;50.518;6.732;2023-07-13T00:35:14;96578.66;;;15.90;79.19
74346;BME280;62776;50.518;6.732;2023-07-13T00:38:00;96573.44;;;15.90;78.90
74346;BME280;62776;50.518;6.732;2023-07-13T00:40:47;96562.94;;;15.90;81.55
74346;BME280;62776;50.518;6.732;2023-07-13T00:43:35;96551.75;;;15.85;79.34
74346;BME280;62776;50.518;6.732;2023-07-13T00:46:25;96551.03;;;15.80;78.18
74346;BME280;62776;50.518;6.732;2023-07-13T00:49:15;96553.81;;;15.76;78.11
74346;BME280;62776;50.518;6.732;2023-07-13T00:52:06;96549.44;;;15.76;77.93
74346;BME280;62776;50.518;6.732;2023-07-13T00:54:56;96553.09;;;15.71;80.29
74346;BME280;62776;50.518;6.732;2023-07-13T00:57:44;96550.41;;;15.72;81.55
74346;BME280;62776;50.518;6.732;2023-07-13T01:00:38;96548.81;;;15.68;79.94
74346;BME280;62776;50.518;6.732;2023-07-13T01:03:24;96547.97;;;15.66;80.95
74346;BME280;62776;50.518;6.732;2023-07-13T01:06:11;96544.63;;;15.63;80.10
74346;BME280;62776;50.518;6.732;2023-07-13T01:08:59;96544.63;;;15.61;79.71
74346;BME280;62776;50.518;6.732;2023-07-13T01:11:52;96547.31;;;15.60;79.92
74346;BME280;62776;50.518;6.732;2023-07-13T01:14:44;96547.41;;;15.57;80.32
74346;BME280;62776;50.518;6.732;2023-07-13T01:17:33;96546.56;;;15.55;82.26
74346;BME280;62776;50.518;6.732;2023-07-13T01:20:20;96550.91;;;15.57;80.33
74346;BME280;62776;50.518;6.732;2023-07-13T01:23:09;96553.63;;;15.53;79.64
74346;BME280;62776;50.518;6.732;2023-07-13T01:25:56;96556.22;;;15.54;81.85
74346;BME280;62776;50.518;6.732;2023-07-13T01:28:47;96562.41;;;15.52;79.64
74346;BME280;62776;50.518;6.732;2023-07-13T01:31:33;96553.78;;;15.48;82.13
74346;BME280;62776;50.518;6.732;2023-07-13T01:34:19;96559.13;;;15.44;79.93
74346;BME280;62776;50.518;6.732;2023-07-13T01:37:06;96555.59;;;15.45;80.18
74346;BME280;62776;50.518;6.732;2023-07-13T01:39:52;96543.41;;;15.44;83.23
74346;BME280;62776;50.518;6.732;2023-07-13T01:42:39;96548.69;;;15.42;81.57
74346;BME280;62776;50.518;6.732;2023-07-13T01:45:26;96557.44;;;15.41;82.36
74346;BME280;62776;50.518;6.732;2023-07-13T01:48:12;96557.47;;;15.40;79.80
74346;BME280;62776;50.518;6.732;2023-07-13T01:50:59;96544.44;;;15.38;81.60
74346;BME280;62776;50.518;6.732;2023-07-13T01:53:45;96553.28;;;15.34;79.86
74346;BME280;62776;50.518;6.732;2023-07-13T01:56:32;96554.16;;;15.34;81.83
74346;BME280;62776;50.518;6.732;2023-07-13T01:59:19;96562.97;;;15.30;82.76
74346;BME280;62776;50.518;6.732;2023-07-13T02:02:07;96561.31;;;15.28;82.75
74346;BME280;62776;50.518;6.732;2023-07-13T02:04:53;96564.00;;;15.25;84.51
74346;BME280;62776;50.518;6.732;2023-07-13T02:07:40;96571.16;;;15.20;83.69
74346;BME280;62776;50.518;6.732;2023-07-13T02:10:26;96574.72;;;15.17;83.68
74346;BME280;62776;50.518;6.732;2023-07-13T02:13:15;96573.03;;;15.15;84.97
74346;BME280;62776;50.518;6.732;2023-07-13T02:16:02;96574.94;;;15.10;83.15
74346;BME280;62776;50.518;6.732;2023-07-13T02:18:48;96581.97;;;15.08;84.19
74346;BME280;62776;50.518;6.732;2023-07-13T02:21:34;96576.81;;;15.05;83.04
74346;BME280;62776;50.518;6.732;2023-07-13T02:24:20;96574.22;;;15.03;85.61
74346;BME280;62776;50.518;6.732;2023-07-13T02:27:07;96575.16;;;15.02;83.81
74346;BME280;62776;50.518;6.732;2023-07-13T02:29:53;96575.22;;;14.99;84.70
74346;BME280;62776;50.518;6.732;2023-07-13T02:32:39;96577.06;;;14.96;86.41
74346;BME280;62776;50.518;6.732;2023-07-13T02:35:26;96577.19;;;14.91;86.66
74346;BME280;62776;50.518;6.732;2023-07-13T02:38:12;96572.84;;;14.90;88.56
74346;BME280;62776;50.518;6.732;2023-07-13T02:40:58;96568.63;;;14.85;86.54
74346;BME280;62776;50.518;6.732;2023-07-13T02:43:44;96567.75;;;14.86;88.52
74346;BME280;62776;50.518;6.732;2023-07-13T02:46:33;96563.56;;;14.78;87.91
74346;BME280;62776;50.518;6.732;2023-07-13T02:49:19;96571.50;;;14.75;89.74
74346;BME280;62776;50.518;6.732;2023-07-13T02:52:05;96574.09;;;14.75;90.34
74346;BME280;62776;50.518;6.732;2023-07-13T02:54:52;96566.38;;;14.71;91.23
74346;BME280;62776;50.518;6.732;2023-07-13T02:57:38;96568.13;;;14.72;90.84
74346;BME280;62776;50.518;6.732;2023-07-13T03:00:25;96574.19;;;14.72;92.35
74346;BME280;62776;50.518;6.732;2023-07-13T03:03:13;96577.78;;;14.68;93.05
74346;BME280;62776;50.518;6.732;2023-07-13T03:06:02;96563.97;;;14.63;92.90
74346;BME280;62776;50.518;6.732;2023-07-13T03:08:50;96570.97;;;14.63;93.96
74346;BME280;62776;50.518;6.732;2023-07-13T03:11:36;96577.06;;;14.63;95.71
74346;BME280;62776;50.518;6.732;2023-07-13T03:14:23;96579.81;;;14.57;95.61
74346;BME280;62776;50.518;6.732;2023-07-13T03:17:10;96578.84;;;14.61;96.93
74346;BME280;62776;50.518;6.732;2023-07-13T03:19:56;96581.56;;;14.58;97.36
74346;BME280;62776;50.518;6.732;2023-07-13T03:22:43;96585.06;;;14.57;98.08
74346;BME280;62776;50.518;6.732;2023-07-13T03:25:29;96578.09;;;14.56;98.01
74346;BME280;62776;50.518;6.732;2023-07-13T03:28:16;96581.66;;;14.54;98.01
74346;BME280;62776;50.518;6.732;2023-07-13T03:31:12;96591.44;;;14.46;99.35
74346;BME280;62776;50.518;6.732;2023-07-13T03:33:59;96582.56;;;14.53;99.66
74346;BME280;62776;50.518;6.732;2023-07-13T03:36:45;96582.59;;;14.51;100.00
74346;BME280;62776;50.518;6.732;2023-07-13T03:39:32;96584.41;;;14.48;100.00
74346;BME280;62776;50.518;6.732;2023-07-13T03:42:19;96583.59;;;14.47;100.00
74346;BME280;62776;50.518;6.732;2023-07-13T03:45:07;96594.13;;;14.43;100.00
74346;BME280;62776;50.518;6.732;2023-07-13T03:47:53;96596.81;;;14.41;100.00
74346;BME280;62776;50.518;6.732;2023-07-13T03:50:39;96607.28;;;14.40;100.00
74346;BME280;62776;50.518;6.732;2023-07-13T03:53:26;96596.88;;;14.38;100.00
74346;BME280;62776;50.518;6.732;2023-07-13T03:56:12;96593.38;;;14.39;100.00
74346;BME280;62776;50.518;6.732;2023-07-13T03:59:00;96599.50;;;14.38;100.00
74346;BME280;62776;50.518;6.732;2023-07-13T04:01:46;96585.63;;;14.35;100.00
74346;BME280;62776;50.518;6.732;2023-07-13T04:04:33;96592.66;;;14.33;100.00
74346;BME280;62776;50.518;6.732;2023-07-13T04:07:19;96604.00;;;14.32;100.00
74346;BME280;62776;50.518;6.732;2023-07-13T04:10:06;96592.66;;;14.33;100.00
74346;BME280;62776;50.518;6.732;2023-07-13T04:12:53;96588.22;;;14.36;100.00
74346;BME280;62776;50.518;6.732;2023-07-13T04:15:41;96600.44;;;14.34;100.00
74346;BME280;62776;50.518;6.732;2023-07-13T04:18:28;96594.38;;;14.34;100.00
74346;BME280;62776;50.518;6.732;2023-07-13T04:21:16;96595.38;;;14.28;100.00
74346;BME280;62776;50.518;6.732;2023-07-13T04:24:04;96597.00;;;14.34;100.00
74346;BME280;62776;50.518;6.732;2023-07-13T04:26:50;96598.78;;;14.32;100.00
74346;BME280;62776;50.518;6.732;2023-07-13T04:29:37;96596.06;;;14.36;100.00
74346;BME280;62776;50.518;6.732;2023-07-13T04:32:24;96595.13;;;14.39;100.00
74346;BME280;62776;50.518;6.732;2023-07-13T04:35:12;96590.66;;;14.42;100.00
74346;BME280;62776;50.518;6.732;2023-07-13T04:38:01;96596.81;;;14.41;100.00
74346;BME280;62776;50.518;6.732;2023-07-13T04:40:48;96599.34;;;14.44;100.00
74346;BME280;62776;50.518;6.732;2023-07-13T04:43:34;96607.22;;;14.43;100.00
74346;BME280;62776;50.518;6.732;2023-07-13T04:46:21;96609.88;;;14.41;100.00
74346;BME280;62776;50.518;6.732;2023-07-13T04:49:07;96608.22;;;14.37;100.00
74346;BME280;62776;50.518;6.732;2023-07-13T04:51:55;96612.59;;;14.37;100.00
74346;BME280;62776;50.518;6.732;2023-07-13T04:54:41;96614.44;;;14.33;100.00
74346;BME280;62776;50.518;6.732;2023-07-13T04:57:28;96614.47;;;14.30;100.00
74346;BME280;62776;50.518;6.732;2023-07-13T05:00:15;96615.31;;;14.34;100.00
74346;BME280;62776;50.518;6.732;2023-07-13T05:03:03;96618.75;;;14.36;100.00
74346;BME280;62776;50.518;6.732;2023-07-13T05:05:58;96617.00;;;14.35;100.00
74346;BME280;62776;50.518;6.732;2023-07-13T05:08:45;96618.63;;;14.40;100.00
74346;BME280;62776;50.518;6.732;2023-07-13T05:11:33;96623.16;;;14.32;100.00
74346;BME280;62776;50.518;6.732;2023-07-13T05:14:19;96633.72;;;14.26;100.00
74346;BME280;62776;50.518;6.732;2023-07-13T05:17:06;96627.69;;;14.24;100.00
74346;BME280;62776;50.518;6.732;2023-07-13T05:19:54;96631.09;;;14.28;100.00
74346;BME280;62776;50.518;6.732;2023-07-13T05:22:40;96637.03;;;14.36;100.00
74346;BME280;62776;50.518;6.732;2023-07-13T05:25:27;96634.16;;;14.46;100.00
74346;BME280;62776;50.518;6.732;2023-07-13T05:28:13;96639.09;;;14.58;100.00
74346;BME280;62776;50.518;6.732;2023-07-13T05:30:59;96641.28;;;14.75;100.00
74346;BME280;62776;50.518;6.732;2023-07-13T05:33:45;96633.94;;;14.89;100.00
74346;BME280;62776;50.518;6.732;2023-07-13T05:36:31;96631.81;;;15.05;100.00
74346;BME280;62776;50.518;6.732;2023-07-13T05:39:18;96640.97;;;15.21;100.00
74346;BME280;62776;50.518;6.732;2023-07-13T05:42:05;96640.44;;;15.39;100.00
74346;BME280;62776;50.518;6.732;2023-07-13T05:44:53;96642.69;;;15.54;100.00
74346;BME280;62776;50.518;6.732;2023-07-13T05:47:40;96639.59;;;15.69;100.00
74346;BME280;62776;50.518;6.732;2023-07-13T05:50:27;96640.88;;;15.85;100.00
74346;BME280;62776;50.518;6.732;2023-07-13T05:53:15;96642.25;;;15.99;100.00
74346;BME280;62776;50.518;6.732;2023-07-13T05:56:01;96650.59;;;16.11;100.00
74346;BME280;62776;50.518;6.732;2023-07-13T05:58:49;96648.53;;;16.21;99.59
74346;BME280;62776;50.518;6.732;2023-07-13T06:01:43;96642.66;;;16.40;98.75
74346;BME280;62776;50.518;6.732;2023-07-13T06:04:29;96643.88;;;16.58;98.11
74346;BME280;62776;50.518;6.732;2023-07-13T06:07:16;96648.72;;;16.70;96.12
74346;BME280;62776;50.518;6.732;2023-07-13T06:10:04;96645.00;;;16.77;94.73
74346;BME280;62776;50.518;6.732;2023-07-13T06:12:51;96651.56;;;16.90;94.94
74346;BME280;62776;50.518;6.732;2023-07-13T06:15:37;96652.13;;;17.00;94.69
74346;BME280;62776;50.518;6.732;2023-07-13T06:18:24;96649.22;;;17.07;94.15
74346;BME280;62776;50.518;6.732;2023-07-13T06:21:16;96657.91;;;17.09;93.14
74346;BME280;62776;50.518;6.732;2023-07-13T06:24:04;96657.22;;;17.29;92.19
74346;BME280;62776;50.518;6.732;2023-07-13T06:26:52;96659.53;;;17.38;91.96
74346;BME280;62776;50.518;6.732;2023-07-13T06:29:40;96660.03;;;17.48;90.02
74346;BME280;62776;50.518;6.732;2023-07-13T06:32:31;96660.72;;;17.53;86.11
74346;BME280;62776;50.518;6.732;2023-07-13T06:35:18;96664.94;;;17.58;85.70
74346;BME280;62776;50.518;6.732;2023-07-13T06:38:10;96670.19;;;17.58;85.54
74346;BME280;62776;50.518;6.732;2023-07-13T06:40:57;96669.94;;;17.66;85.39
74346;BME280;62776;50.518;6.732;2023-07-13T06:43:44;96678.34;;;17.76;83.08
74346;BME280;62776;50.518;6.732;2023-07-13T06:46:30;96672.91;;;17.80;81.85
74346;BME280;62776;50.518;6.732;2023-07-13T06:49:16;96670.50;;;17.97;82.14
74346;BME280;62776;50.518;6.732;2023-07-13T06:52:04;96678.75;;;18.11;79.70
74346;BME280;62776;50.518;6.732;2023-07-13T06:54:50;96673.03;;;18.23;79.21
74346;BME280;62776;50.518;6.732;2023-07-13T06:57:38;96673.91;;;18.46;78.12
74346;BME280;62776;50.518;6.732;2023-07-13T07:00:25;96674.94;;;18.65;75.15
74346;BME280;62776;50.518;6.732;2023-07-13T07:03:13;96678.53;;;18.84;74.07
74346;BME280;62776;50.518;6.732;2023-07-13T07:06:20;96681.53;;;18.75;69.46
74346;BME280;62776;50.518;6.732;2023-07-13T07:09:09;96674.28;;;19.02;70.45
74346;BME280;62776;50.518;6.732;2023-07-13T07:11:56;96681.94;;;19.08;70.43
74346;BME280;62776;50.518;6.732;2023-07-13T07:14:44;96680.72;;;19.15;69.04
74346;BME280;62776;50.518;6.732;2023-07-13T07:17:38;96687.03;;;19.32;68.88
74346;BME280;62776;50.518;6.732;2023-07-13T07:20:26;96690.88;;;19.46;69.24
74346;BME280;62776;50.518;6.732;2023-07-13T07:23:13;96682.31;;;19.61;67.93
74346;BME280;62776;50.518;6.732;2023-07-13T07:26:06;96683.53;;;19.72;65.65
74346;BME280;62776;50.518;6.732;2023-07-13T07:29:00;96677.13;;;19.78;64.93
74346;BME280;62776;50.518;6.732;2023-07-13T07:31:48;96683.59;;;19.91;65.88
74346;BME280;62776;50.518;6.732;2023-07-13T07:34:36;96688.53;;;19.98;64.60
74346;BME280;62776;50.518;6.732;2023-07-13T07:37:22;96686.38;;;20.07;63.66
74346;BME280;62776;50.518;6.732;2023-07-13T07:40:11;96682.59;;;20.12;61.95
74346;BME280;62776;50.518;6.732;2023-07-13T07:42:58;96683.16;;;20.00;60.52
74346;BME280;62776;50.518;6.732;2023-07-13T07:45:45;96687.66;;;19.98;60.27
74346;BME280;62776;50.518;6.732;2023-07-13T07:48:33;96688.28;;;20.03;62.32
74346;BME280;62776;50.518;6.732;2023-07-13T07:51:26;96688.44;;;20.00;61.42
74346;BME280;62776;50.518;6.732;2023-07-13T07:54:12;96688.75;;;20.13;61.29
74346;BME280;62776;50.518;6.732;2023-07-13T07:57:00;96685.50;;;20.26;61.19
74346;BME280;62776;50.518;6.732;2023-07-13T07:59:46;96683.22;;;20.37;57.95
74346;BME280;62776;50.518;6.732;2023-07-13T08:02:34;96686.50;;;20.42;56.72
74346;BME280;62776;50.518;6.732;2023-07-13T08:05:21;96684.78;;;20.41;56.49
74346;BME280;62776;50.518;6.732;2023-07-13T08:08:10;96688.59;;;20.54;56.16
74346;BME280;62776;50.518;6.732;2023-07-13T08:10:56;96686.19;;;20.67;55.88
74346;BME280;62776;50.518;6.732;2023-07-13T08:13:42;96694.09;;;20.86;56.08
74346;BME280;62776;50.518;6.732;2023-07-13T08:16:30;96683.56;;;21.03;54.27
74346;BME280;62776;50.518;6.732;2023-07-13T08:19:24;96682.03;;;21.16;54.83
74346;BME280;62776;50.518;6.732;2023-07-13T08:22:11;96690.28;;;21.27;52.21
74346;BME280;62776;50.518;6.732;2023-07-13T08:24:58;96685.47;;;21.35;51.24
74346;BME280;62776;50.518;6.732;2023-07-13T08:27:47;96691.94;;;21.47;51.64
74346;BME280;62776;50.518;6.732;2023-07-13T08:30:34;96685.53;;;21.51;51.04
74346;BME280;62776;50.518;6.732;2023-07-13T08:33:26;96680.09;;;21.54;50.98
74346;BME280;62776;50.518;6.732;2023-07-13T08:36:13;96682.72;;;21.54;50.04
74346;BME280;62776;50.518;6.732;2023-07-13T08:39:00;96687.50;;;21.64;50.73
74346;BME280;62776;50.518;6.732;2023-07-13T08:41:54;96683.94;;;21.81;51.46
74346;BME280;62776;50.518;6.732;2023-07-13T08:44:52;96684.66;;;21.67;51.41
74346;BME280;62776;50.518;6.732;2023-07-13T08:47:53;96682.34;;;22.11;49.82
74346;BME280;62776;50.518;6.732;2023-07-13T08:50:57;96684.78;;;22.31;50.08
74346;BME280;62776;50.518;6.732;2023-07-13T08:53:51;96674.19;;;22.47;51.87
74346;BME280;62776;50.518;6.732;2023-07-13T08:56:40;96679.09;;;22.86;49.30
74346;BME280;62776;50.518;6.732;2023-07-13T08:59:30;96685.84;;;22.91;47.45
74346;BME280;62776;50.518;6.732;2023-07-13T09:05:41;96688.09;;;23.13;46.02
74346;BME280;62776;50.518;6.732;2023-07-13T09:08:44;96681.41;;;23.22;45.46
74346;BME280;62776;50.518;6.732;2023-07-13T09:12:01;96692.13;;;23.05;45.51
74346;BME280;62776;50.518;6.732;2023-07-13T09:14:59;96689.44;;;23.36;46.01
74346;BME280;62776;50.518;6.732;2023-07-13T09:17:55;96685.34;;;23.60;46.42
74346;BME280;62776;50.518;6.732;2023-07-13T09:20:54;96697.38;;;23.81;43.60
74346;BME280;62776;50.518;6.732;2023-07-13T09:23:44;96701.66;;;23.98;43.23
74346;BME280;62776;50.518;6.732;2023-07-13T09:26:32;96700.28;;;23.91;42.72
74346;BME280;62776;50.518;6.732;2023-07-13T09:29:32;96690.56;;;24.05;43.13
74346;BME280;62776;50.518;6.732;2023-07-13T09:32:23;96686.53;;;23.98;42.87
74346;BME280;62776;50.518;6.732;2023-07-13T09:35:15;96703.06;;;23.89;42.79
74346;BME280;62776;50.518;6.732;2023-07-13T09:38:18;96704.44;;;23.67;42.18
74346;BME280;62776;50.518;6.732;2023-07-13T09:41:37;96698.59;;;23.46;42.41
74346;BME280;62776;50.518;6.732;2023-07-13T09:44:42;96698.47;;;23.18;43.67
74346;BME280;62776;50.518;6.732;2023-07-13T09:47:32;96713.34;;;23.05;44.39
74346;BME280;62776;50.518;6.732;2023-07-13T09:50:20;96698.84;;;22.96;44.31
74346;BME280;62776;50.518;6.732;2023-07-13T09:53:14;96707.38;;;22.85;45.32
74346;BME280;62776;50.518;6.732;2023-07-13T09:56:03;96702.25;;;22.98;44.62
74346;BME280;62776;50.518;6.732;2023-07-13T09:58:58;96712.53;;;23.04;44.14
74346;BME280;62776;50.518;6.732;2023-07-13T10:01:45;96705.03;;;23.26;44.97
74346;BME280;62776;50.518;6.732;2023-07-13T10:04:35;96699.94;;;23.53;44.27
74346;BME280;62776;50.518;6.732;2023-07-13T10:07:23;96698.84;;;23.71;43.52
74346;BME280;62776;50.518;6.732;2023-07-13T10:10:17;96706.69;;;23.59;42.19
74346;BME280;62776;50.518;6.732;2023-07-13T10:16:12;96721.81;;;23.42;42.89
74346;BME280;62776;50.518;6.732;2023-07-13T10:19:09;96713.66;;;23.30;42.42
74346;BME280;62776;50.518;6.732;2023-07-13T10:25:39;96713.97;;;23.55;42.25
74346;BME280;62776;50.518;6.732;2023-07-13T10:28:31;96712.84;;;23.59;42.28
74346;BME280;62776;50.518;6.732;2023-07-13T10:31:20;96719.22;;;23.41;42.42
74346;BME280;62776;50.518;6.732;2023-07-13T10:34:11;96721.53;;;23.47;42.15
74346;BME280;62776;50.518;6.732;2023-07-13T10:37:16;96723.66;;;23.56;41.65
74346;BME280;62776;50.518;6.732;2023-07-13T10:40:18;96713.56;;;23.47;41.20
74346;BME280;62776;50.518;6.732;2023-07-13T10:43:33;96727.59;;;23.49;40.73
74346;BME280;62776;50.518;6.732;2023-07-13T10:46:27;96727.38;;;23.38;41.68
74346;BME280;62776;50.518;6.732;2023-07-13T10:49:15;96742.59;;;23.50;40.85
74346;BME280;62776;50.518;6.732;2023-07-13T10:52:04;96726.66;;;23.50;42.17
74346;BME280;62776;50.518;6.732;2023-07-13T10:54:55;96729.72;;;23.58;40.63
74346;BME280;62776;50.518;6.732;2023-07-13T10:57:43;96734.00;;;23.61;41.10
74346;BME280;62776;50.518;6.732;2023-07-13T11:06:41;96752.53;;;23.31;41.62
74346;BME280;62776;50.518;6.732;2023-07-13T11:09:36;96729.56;;;23.30;40.89
74346;BME280;62776;50.518;6.732;2023-07-13T11:15:44;96749.28;;;23.26;40.98
74346;BME280;62776;50.518;6.732;2023-07-13T11:18:30;96741.13;;;23.44;41.12
74346;BME280;62776;50.518;6.732;2023-07-13T11:21:21;96742.75;;;23.47;40.12
74346;BME280;62776;50.518;6.732;2023-07-13T11:24:14;96747.97;;;23.33;39.41
74346;BME280;62776;50.518;6.732;2023-07-13T11:27:36;96753.31;;;23.17;40.40
74346;BME280;62776;50.518;6.732;2023-07-13T11:36:32;96748.06;;;23.31;41.42
74346;BME280;62776;50.518;6.732;2023-07-13T11:39:32;96753.38;;;23.31;41.81
74346;BME280;62776;50.518;6.732;2023-07-13T11:42:21;96750.44;;;23.36;41.87
74346;BME280;62776;50.518;6.732;2023-07-13T11:45:22;96741.06;;;23.15;41.35
74346;BME280;62776;50.518;6.732;2023-07-13T11:48:24;96753.75;;;23.10;41.72
74346;BME280;62776;50.518;6.732;2023-07-13T11:51:19;96752.38;;;23.03;40.95
74346;BME280;62776;50.518;6.732;2023-07-13T11:54:41;96748.28;;;22.81;40.78
74346;BME280;62776;50.518;6.732;2023-07-13T11:57:37;96760.25;;;22.88;41.55
74346;BME280;62776;50.518;6.732;2023-07-13T12:00:29;96753.50;;;22.99;41.81
74346;BME280;62776;50.518;6.732;2023-07-13T12:03:31;96767.72;;;22.49;42.75
74346;BME280;62776;50.518;6.732;2023-07-13T12:06:28;96764.50;;;22.75;42.56
74346;BME280;62776;50.518;6.732;2023-07-13T12:09:15;96758.63;;;22.86;42.81
74346;BME280;62776;50.518;6.732;2023-07-13T12:12:09;96761.19;;;22.87;43.46
74346;BME280;62776;50.518;6.732;2023-07-13T12:14:57;96758.28;;;22.76;42.63
74346;BME280;62776;50.518;6.732;2023-07-13T12:17:46;96765.53;;;22.73;40.93
74346;BME280;62776;50.518;6.732;2023-07-13T12:20:38;96761.44;;;22.67;41.23
74346;BME280;62776;50.518;6.732;2023-07-13T12:23:32;96767.88;;;22.62;41.65
74346;BME280;62776;50.518;6.732;2023-07-13T12:26:21;96765.91;;;22.82;41.83
74346;BME280;62776;50.518;6.732;2023-07-13T12:29:16;96762.13;;;22.86;42.79
74346;BME280;62776;50.518;6.732;2023-07-13T12:32:03;96760.91;;;23.08;42.74
74346;BME280;62776;50.518;6.732;2023-07-13T12:35:04;96763.00;;;23.18;43.34
74346;BME280;62776;50.518;6.732;2023-07-13T12:37:57;96762.28;;;23.30;42.69
74346;BME280;62776;50.518;6.732;2023-07-13T12:40:51;96776.66;;;23.11;42.19
74346;BME280;62776;50.518;6.732;2023-07-13T12:43:40;96774.97;;;23.10;42.24
74346;BME280;62776;50.518;6.732;2023-07-13T12:46:26;96774.53;;;23.02;41.60
74346;BME280;62776;50.518;6.732;2023-07-13T12:49:28;96779.75;;;22.87;42.38
74346;BME280;62776;50.518;6.732;2023-07-13T12:52:21;96788.72;;;23.01;42.56
74346;BME280;62776;50.518;6.732;2023-07-13T12:55:17;96790.03;;;22.94;42.23
74346;BME280;62776;50.518;6.732;2023-07-13T12:58:04;96786.78;;;23.04;42.81
74346;BME280;62776;50.518;6.732;2023-07-13T13:01:01;96776.41;;;23.00;42.89
74346;BME280;62776;50.518;6.732;2023-07-13T13:03:51;96783.50;;;23.15;43.21
74346;BME280;62776;50.518;6.732;2023-07-13T13:06:38;96778.38;;;23.43;42.41
74346;BME280;62776;50.518;6.732;2023-07-13T13:09:33;96780.47;;;23.68;42.70
74346;BME280;62776;50.518;6.732;2023-07-13T13:12:21;96776.03;;;23.82;42.63
74346;BME280;62776;50.518;6.732;2023-07-13T13:15:10;96776.44;;;23.90;42.19
74346;BME280;62776;50.518;6.732;2023-07-13T13:18:00;96767.66;;;24.04;41.88
74346;BME280;62776;50.518;6.732;2023-07-13T13:20:48;96770.97;;;24.07;40.66
74346;BME280;62776;50.518;6.732;2023-07-13T13:23:37;96777.50;;;24.02;40.82
74346;BME280;62776;50.518;6.732;2023-07-13T13:26:32;96774.97;;;24.00;41.17
74346;BME280;62776;50.518;6.732;2023-07-13T13:29:23;96770.38;;;24.18;41.08
74346;BME280;62776;50.518;6.732;2023-07-13T13:32:13;96775.41;;;24.37;41.50
74346;BME280;62776;50.518;6.732;2023-07-13T13:35:00;96763.84;;;24.52;40.56
74346;BME280;62776;50.518;6.732;2023-07-13T13:37:53;96771.03;;;24.64;40.88
74346;BME280;62776;50.518;6.732;2023-07-13T13:40:40;96768.00;;;24.56;41.44
74346;BME280;62776;50.518;6.732;2023-07-13T13:43:29;96770.09;;;24.51;40.10
74346;BME280;62776;50.518;6.732;2023-07-13T13:46:23;96764.69;;;24.38;40.49
74346;BME280;62776;50.518;6.732;2023-07-13T13:49:23;96759.56;;;24.35;40.84
74346;BME280;62776;50.518;6.732;2023-07-13T13:52:10;96760.31;;;24.51;41.08
74346;BME280;62776;50.518;6.732;2023-07-13T13:54:57;96758.91;;;24.60;41.05
74346;BME280;62776;50.518;6.732;2023-07-13T13:57:44;96764.59;;;24.82;39.02
74346;BME280;62776;50.518;6.732;2023-07-13T14:00:32;96766.59;;;24.93;39.36
74346;BME280;62776;50.518;6.732;2023-07-13T14:03:23;96758.97;;;25.01;39.70
74346;BME280;62776;50.518;6.732;2023-07-13T14:06:15;96759.69;;;25.17;38.98
74346;BME280;62776;50.518;6.732;2023-07-13T14:09:04;96752.19;;;25.36;40.18
74346;BME280;62776;50.518;6.732;2023-07-13T14:11:58;96757.44;;;26.67;38.04
74346;BME280;62776;50.518;6.732;2023-07-13T14:14:45;96749.84;;;26.73;37.14
74346;BME280;62776;50.518;6.732;2023-07-13T14:17:32;96757.03;;;26.35;37.09
74346;BME280;62776;50.518;6.732;2023-07-13T14:20:22;96758.03;;;25.82;38.11
74346;BME280;62776;50.518;6.732;2023-07-13T14:23:12;96760.00;;;25.66;38.43
74346;BME280;62776;50.518;6.732;2023-07-13T14:25:59;96755.78;;;25.76;39.36
74346;BME280;62776;50.518;6.732;2023-07-13T14:28:48;96753.78;;;25.92;38.15
74346;BME280;62776;50.518;6.732;2023-07-13T14:31:36;96753.19;;;26.14;38.31
74346;BME280;62776;50.518;6.732;2023-07-13T14:34:22;96754.59;;;27.06;36.79
74346;BME280;62776;50.518;6.732;2023-07-13T14:37:13;96746.00;;;28.65;35.29
74346;BME280;62776;50.518;6.732;2023-07-13T14:40:00;96752.34;;;29.52;33.40
74346;BME280;62776;50.518;6.732;2023-07-13T14:42:47;96756.34;;;28.81;32.32
74346;BME280;62776;50.518;6.732;2023-07-13T14:45:40;96747.41;;;29.36;32.40
74346;BME280;62776;50.518;6.732;2023-07-13T14:48:39;96746.25;;;30.13;31.28
74346;BME280;62776;50.518;6.732;2023-07-13T14:51:33;96747.09;;;30.55;30.53
74346;BME280;62776;50.518;6.732;2023-07-13T14:54:20;96750.38;;;29.00;32.55
74346;BME280;62776;50.518;6.732;2023-07-13T14:57:18;96745.22;;;28.30;33.19
74346;BME280;62776;50.518;6.732;2023-07-13T15:00:16;96746.09;;;29.08;32.10
74346;BME280;62776;50.518;6.732;2023-07-13T15:03:05;96730.56;;;29.77;31.61
74346;BME280;62776;50.518;6.732;2023-07-13T15:06:12;96731.72;;;29.63;31.10
74346;BME280;62776;50.518;6.732;2023-07-13T15:08:59;96740.34;;;28.35;32.62
74346;BME280;62776;50.518;6.732;2023-07-13T15:11:55;96736.41;;;27.47;34.51
74346;BME280;62776;50.518;6.732;2023-07-13T15:14:43;96746.72;;;26.92;35.23
74346;BME280;62776;50.518;6.732;2023-07-13T15:17:38;96734.19;;;28.00;33.39
74346;BME280;62776;50.518;6.732;2023-07-13T15:20:28;96737.78;;;27.53;33.68
74346;BME280;62776;50.518;6.732;2023-07-13T15:23:18;96747.41;;;26.83;33.92